Nearby METAR Reports

 

KMLP - Mullan Pass
Updated: Mon, 27-Jan-2020 10:53am PST
Light snow, Overcast
Light snow, Overcast
 Wind from varies
Wind: varies 7 mph , 11 km/h
Temperature: 28°F , -2°C
Wind Chill: 21°F , -6°C
Dew Point: 23°F , -5°C
Humidity: 80%
Barometer: 30.05 inHg , 1017.6 hPa
Summary: Light Snow
Clouds: Overcast
Visibility: 6 miles , 10 km
Cloud details: Mostly Cloudy 400 ft
Overcast 800 ft
2020/01/27 18:53 KMLP 271853Z AUTO VRB06KT 6SM -SN BKN004 OVC008 M02/M05 A3005 RMK AO2 SLP202 P0000 T10221050 $
KCOE - Coeur d Alene
Updated: Mon, 27-Jan-2020 10:56am PST
Overcast
Overcast
 Wind from SSW
Wind: SSW 8 mph , 13 km/h
Temperature: 37°F , 3°C
Wind Chill: 31°F , -1°C
Dew Point: 36°F , 2°C
Humidity: 93%
Barometer: 30.17 inHg , 1021.7 hPa
Clouds: Overcast
Visibility: 10 miles , 16 km
Cloud details: Overcast 1100 ft
2020/01/27 18:56 KCOE 271856Z AUTO 21007KT 10SM OVC011 03/02 A3017 RMK AO2 SLP249 T00330017
 
KLWS - Lewiston
Updated: Mon, 27-Jan-2020 10:56am PST
Fog, Overcast
Fog, Overcast
 Wind from calm
Wind: Calm
Temperature: 37°F , 3°C
Dew Point: 36°F , 2°C
Humidity: 93%
Barometer: 30.23 inHg , 1023.7 hPa
Summary: Fog
Clouds: Overcast
Visibility: 1/4 mile , 0.4 km
Cloud details: Overcast 200 ft
2020/01/27 18:56 KLWS 271856Z 00000KT 1/4SM FG VV002 03/02 A3023 RMK AO2 SLP248 T00280022
KGEG - Spokane Intl
Updated: Mon, 27-Jan-2020 10:53am PST
Partly Cloudy
Partly Cloudy
 Wind from SSW
Wind: SSW 17 mph , 28 km/h
Temperature: 37°F , 3°C
Wind Chill: 27°F , -3°C
Dew Point: 32°F , 0°C
Humidity: 81%
Barometer: 30.15 inHg , 1021 hPa
Clouds: Partly Cloudy
Visibility: 10 miles , 16 km
Cloud details: Partly Cloudy 800 ft
Partly Cloudy 10000 ft
2020/01/27 18:53 KGEG 271853Z 21015KT 10SM SCT008 SCT100 03/00 A3015 RMK AO2 SLP224 T00330000